sensor_id;sensor_type;location;lat;lon;timestamp;temperature;humidity
23568;DHT22;11962;50.838;4.430;2023-04-10T00:02:25;12.20;95.60
23568;DHT22;11962;50.838;4.430;2023-04-10T00:04:51;12.20;95.80
23568;DHT22;11962;50.838;4.430;2023-04-10T00:07:16;12.10;96.00
23568;DHT22;11962;50.838;4.430;2023-04-10T00:09:42;12.10;96.40
23568;DHT22;11962;50.838;4.430;2023-04-10T00:12:08;12.00;96.60
23568;DHT22;11962;50.838;4.430;2023-04-10T00:14:35;12.00;96.80
23568;DHT22;11962;50.838;4.430;2023-04-10T00:17:01;11.90;96.80
23568;DHT22;11962;50.838;4.430;2023-04-10T00:19:27;11.90;96.90
23568;DHT22;11962;50.838;4.430;2023-04-10T00:21:54;11.90;96.70
23568;DHT22;11962;50.838;4.430;2023-04-10T00:24:20;11.90;96.70
23568;DHT22;11962;50.838;4.430;2023-04-10T00:26:46;11.90;96.70
23568;DHT22;11962;50.838;4.430;2023-04-10T00:29:11;11.90;96.50
23568;DHT22;11962;50.838;4.430;2023-04-10T00:31:37;11.90;96.30
23568;DHT22;11962;50.838;4.430;2023-04-10T00:34:03;12.00;96.10
23568;DHT22;11962;50.838;4.430;2023-04-10T00:36:29;12.00;96.10
23568;DHT22;11962;50.838;4.430;2023-04-10T00:38:56;11.90;96.00
23568;DHT22;11962;50.838;4.430;2023-04-10T00:41:22;11.90;95.90
23568;DHT22;11962;50.838;4.430;2023-04-10T00:43:48;11.90;95.80
23568;DHT22;11962;50.838;4.430;2023-04-10T00:46:14;11.90;95.70
23568;DHT22;11962;50.838;4.430;2023-04-10T00:48:40;11.90;95.60
23568;DHT22;11962;50.838;4.430;2023-04-10T00:51:06;11.90;95.40
23568;DHT22;11962;50.838;4.430;2023-04-10T00:53:32;11.90;95.40
23568;DHT22;11962;50.838;4.430;2023-04-10T00:56:00;11.80;95.40
23568;DHT22;11962;50.838;4.430;2023-04-10T00:58:26;11.90;95.40
23568;DHT22;11962;50.838;4.430;2023-04-10T01:00:52;11.90;95.30
23568;DHT22;11962;50.838;4.430;2023-04-10T01:03:18;11.80;95.20
23568;DHT22;11962;50.838;4.430;2023-04-10T01:09:31;11.80;95.10
23568;DHT22;11962;50.838;4.430;2023-04-10T01:12:28;11.70;95.00
23568;DHT22;11962;50.838;4.430;2023-04-10T01:15:37;11.70;95.10
23568;DHT22;11962;50.838;4.430;2023-04-10T01:18:06;11.70;95.00
23568;DHT22;11962;50.838;4.430;2023-04-10T01:20:36;11.60;95.10
23568;DHT22;11962;50.838;4.430;2023-04-10T01:31:09;11.50;95.00
23568;DHT22;11962;50.838;4.430;2023-04-10T01:33:46;11.60;95.10
23568;DHT22;11962;50.838;4.430;2023-04-10T01:36:20;11.50;95.00
23568;DHT22;11962;50.838;4.430;2023-04-10T01:38:48;11.50;94.90
23568;DHT22;11962;50.838;4.430;2023-04-10T01:41:15;11.60;94.90
23568;DHT22;11962;50.838;4.430;2023-04-10T01:43:42;11.50;94.70
23568;DHT22;11962;50.838;4.430;2023-04-10T01:46:07;11.50;94.70
23568;DHT22;11962;50.838;4.430;2023-04-10T01:48:34;11.50;94.70
23568;DHT22;11962;50.838;4.430;2023-04-10T01:51:03;11.60;94.70
23568;DHT22;11962;50.838;4.430;2023-04-10T01:53:30;11.50;94.70
23568;DHT22;11962;50.838;4.430;2023-04-10T01:55:56;11.50;94.70
23568;DHT22;11962;50.838;4.430;2023-04-10T01:58:22;11.50;94.70
23568;DHT22;11962;50.838;4.430;2023-04-10T02:00:49;11.50;94.60
23568;DHT22;11962;50.838;4.430;2023-04-10T02:03:14;11.50;94.60
23568;DHT22;11962;50.838;4.430;2023-04-10T02:08:56;11.50;94.40
23568;DHT22;11962;50.838;4.430;2023-04-10T02:13:58;11.40;94.80
23568;DHT22;11962;50.838;4.430;2023-04-10T02:16:25;11.40;94.40
23568;DHT22;11962;50.838;4.430;2023-04-10T02:18:52;11.30;94.30
23568;DHT22;11962;50.838;4.430;2023-04-10T02:21:19;11.30;94.40
23568;DHT22;11962;50.838;4.430;2023-04-10T02:23:45;11.40;94.50
23568;DHT22;11962;50.838;4.430;2023-04-10T02:26:10;11.30;94.40
23568;DHT22;11962;50.838;4.430;2023-04-10T02:28:39;11.30;94.40
23568;DHT22;11962;50.838;4.430;2023-04-10T02:31:05;11.40;94.30
23568;DHT22;11962;50.838;4.430;2023-04-10T02:33:31;11.30;94.30
23568;DHT22;11962;50.838;4.430;2023-04-10T02:35:57;11.30;94.20
23568;DHT22;11962;50.838;4.430;2023-04-10T02:38:24;11.30;94.30
23568;DHT22;11962;50.838;4.430;2023-04-10T02:40:50;11.30;94.20
23568;DHT22;11962;50.838;4.430;2023-04-10T02:43:15;11.20;94.30
23568;DHT22;11962;50.838;4.430;2023-04-10T02:45:41;11.20;94.50
23568;DHT22;11962;50.838;4.430;2023-04-10T02:48:08;11.30;94.20
23568;DHT22;11962;50.838;4.430;2023-04-10T02:50:35;11.30;94.10
23568;DHT22;11962;50.838;4.430;2023-04-10T02:53:01;11.30;94.00
23568;DHT22;11962;50.838;4.430;2023-04-10T02:55:27;11.30;94.00
23568;DHT22;11962;50.838;4.430;2023-04-10T02:57:52;11.20;94.00
23568;DHT22;11962;50.838;4.430;2023-04-10T03:00:18;11.20;94.00
23568;DHT22;11962;50.838;4.430;2023-04-10T03:02:44;11.20;94.40
23568;DHT22;11962;50.838;4.430;2023-04-10T03:05:10;11.20;94.00
23568;DHT22;11962;50.838;4.430;2023-04-10T03:07:36;11.20;94.00
23568;DHT22;11962;50.838;4.430;2023-04-10T03:10:02;11.30;94.00
23568;DHT22;11962;50.838;4.430;2023-04-10T03:12:27;11.30;93.90
23568;DHT22;11962;50.838;4.430;2023-04-10T03:14:53;11.30;93.90
23568;DHT22;11962;50.838;4.430;2023-04-10T03:17:19;11.30;93.90
23568;DHT22;11962;50.838;4.430;2023-04-10T03:19:45;11.30;93.80
23568;DHT22;11962;50.838;4.430;2023-04-10T03:22:11;11.20;93.80
23568;DHT22;11962;50.838;4.430;2023-04-10T03:24:36;11.30;93.80
23568;DHT22;11962;50.838;4.430;2023-04-10T03:27:05;11.30;93.80
23568;DHT22;11962;50.838;4.430;2023-04-10T03:29:31;11.30;93.70
23568;DHT22;11962;50.838;4.430;2023-04-10T03:31:57;11.30;93.70
23568;DHT22;11962;50.838;4.430;2023-04-10T03:34:22;11.20;93.70
23568;DHT22;11962;50.838;4.430;2023-04-10T03:36:48;11.30;93.70
23568;DHT22;11962;50.838;4.430;2023-04-10T03:39:14;11.30;93.70
23568;DHT22;11962;50.838;4.430;2023-04-10T03:41:39;11.30;93.60
23568;DHT22;11962;50.838;4.430;2023-04-10T03:44:06;11.30;93.50
23568;DHT22;11962;50.838;4.430;2023-04-10T03:46:31;11.30;93.50
23568;DHT22;11962;50.838;4.430;2023-04-10T03:48:57;11.30;93.50
23568;DHT22;11962;50.838;4.430;2023-04-10T03:51:23;11.30;93.40
23568;DHT22;11962;50.838;4.430;2023-04-10T03:53:49;11.20;93.40
23568;DHT22;11962;50.838;4.430;2023-04-10T03:56:15;11.20;93.40
23568;DHT22;11962;50.838;4.430;2023-04-10T03:58:41;11.20;93.60
23568;DHT22;11962;50.838;4.430;2023-04-10T04:01:07;11.20;93.50
23568;DHT22;11962;50.838;4.430;2023-04-10T04:03:33;11.20;93.50
23568;DHT22;11962;50.838;4.430;2023-04-10T04:05:58;11.10;93.40
23568;DHT22;11962;50.838;4.430;2023-04-10T04:08:24;11.10;93.50
23568;DHT22;11962;50.838;4.430;2023-04-10T04:10:50;11.10;93.50
23568;DHT22;11962;50.838;4.430;2023-04-10T04:13:16;11.10;93.60
23568;DHT22;11962;50.838;4.430;2023-04-10T04:15:42;11.00;93.60
23568;DHT22;11962;50.838;4.430;2023-04-10T04:18:08;11.00;93.60
23568;DHT22;11962;50.838;4.430;2023-04-10T04:20:34;11.00;93.60
23568;DHT22;11962;50.838;4.430;2023-04-10T04:23:00;11.00;93.50
23568;DHT22;11962;50.838;4.430;2023-04-10T04:25:26;11.00;93.50
23568;DHT22;11962;50.838;4.430;2023-04-10T04:27:52;11.00;93.50
23568;DHT22;11962;50.838;4.430;2023-04-10T04:30:17;11.00;93.80
23568;DHT22;11962;50.838;4.430;2023-04-10T04:32:43;11.00;93.50
23568;DHT22;11962;50.838;4.430;2023-04-10T04:35:09;11.00;93.60
23568;DHT22;11962;50.838;4.430;2023-04-10T04:37:35;11.00;93.60
23568;DHT22;11962;50.838;4.430;2023-04-10T04:40:01;11.00;93.60
23568;DHT22;11962;50.838;4.430;2023-04-10T04:42:27;11.10;93.60
23568;DHT22;11962;50.838;4.430;2023-04-10T04:44:53;11.00;93.60
23568;DHT22;11962;50.838;4.430;2023-04-10T04:47:18;11.00;93.70
23568;DHT22;11962;50.838;4.430;2023-04-10T04:49:44;11.10;93.60
23568;DHT22;11962;50.838;4.430;2023-04-10T04:52:10;11.10;93.60
23568;DHT22;11962;50.838;4.430;2023-04-10T04:54:35;11.10;93.50
23568;DHT22;11962;50.838;4.430;2023-04-10T04:57:01;11.10;93.40
23568;DHT22;11962;50.838;4.430;2023-04-10T04:59:27;11.10;93.50
23568;DHT22;11962;50.838;4.430;2023-04-10T05:01:53;11.10;93.50
23568;DHT22;11962;50.838;4.430;2023-04-10T05:04:18;11.20;93.50
23568;DHT22;11962;50.838;4.430;2023-04-10T05:06:45;11.20;93.50
23568;DHT22;11962;50.838;4.430;2023-04-10T05:09:11;11.20;93.40
23568;DHT22;11962;50.838;4.430;2023-04-10T05:11:36;11.10;93.30
23568;DHT22;11962;50.838;4.430;2023-04-10T05:14:02;11.10;93.20
23568;DHT22;11962;50.838;4.430;2023-04-10T05:16:28;11.20;93.20
23568;DHT22;11962;50.838;4.430;2023-04-10T05:18:54;11.20;93.10
23568;DHT22;11962;50.838;4.430;2023-04-10T05:21:20;11.30;93.10
23568;DHT22;11962;50.838;4.430;2023-04-10T05:23:45;11.30;92.90
23568;DHT22;11962;50.838;4.430;2023-04-10T05:26:11;11.30;93.00
23568;DHT22;11962;50.838;4.430;2023-04-10T05:28:37;11.30;92.80
23568;DHT22;11962;50.838;4.430;2023-04-10T05:31:03;11.40;92.90
23568;DHT22;11962;50.838;4.430;2023-04-10T05:33:28;11.40;92.80
23568;DHT22;11962;50.838;4.430;2023-04-10T05:35:54;11.40;92.60
23568;DHT22;11962;50.838;4.430;2023-04-10T05:38:21;11.50;92.60
23568;DHT22;11962;50.838;4.430;2023-04-10T05:40:47;11.50;92.40
23568;DHT22;11962;50.838;4.430;2023-04-10T05:43:12;11.50;92.40
23568;DHT22;11962;50.838;4.430;2023-04-10T05:45:39;11.50;92.30
23568;DHT22;11962;50.838;4.430;2023-04-10T05:48:08;11.60;92.40
23568;DHT22;11962;50.838;4.430;2023-04-10T05:50:34;11.60;92.30
23568;DHT22;11962;50.838;4.430;2023-04-10T05:53:00;11.70;92.10
23568;DHT22;11962;50.838;4.430;2023-04-10T05:55:26;11.70;92.10
23568;DHT22;11962;50.838;4.430;2023-04-10T05:57:51;11.80;92.00
23568;DHT22;11962;50.838;4.430;2023-04-10T06:00:18;11.80;91.90
23568;DHT22;11962;50.838;4.430;2023-04-10T06:02:44;11.90;91.80
23568;DHT22;11962;50.838;4.430;2023-04-10T06:05:10;12.00;91.70
23568;DHT22;11962;50.838;4.430;2023-04-10T06:07:36;12.00;91.90
23568;DHT22;11962;50.838;4.430;2023-04-10T06:10:01;12.00;91.50
23568;DHT22;11962;50.838;4.430;2023-04-10T06:12:27;12.00;91.40
23568;DHT22;11962;50.838;4.430;2023-04-10T06:14:53;12.10;91.40
23568;DHT22;11962;50.838;4.430;2023-04-10T06:17:18;12.00;91.30
23568;DHT22;11962;50.838;4.430;2023-04-10T06:19:45;12.00;91.30
23568;DHT22;11962;50.838;4.430;2023-04-10T06:22:11;12.00;91.30
23568;DHT22;11962;50.838;4.430;2023-04-10T06:24:37;12.00;91.10
23568;DHT22;11962;50.838;4.430;2023-04-10T06:27:03;12.10;91.10
23568;DHT22;11962;50.838;4.430;2023-04-10T06:29:28;12.20;91.00
23568;DHT22;11962;50.838;4.430;2023-04-10T06:31:54;12.20;91.00
23568;DHT22;11962;50.838;4.430;2023-04-10T06:34:20;12.30;90.90
23568;DHT22;11962;50.838;4.430;2023-04-10T06:36:46;12.40;90.60
23568;DHT22;11962;50.838;4.430;2023-04-10T06:39:12;12.40;90.70
23568;DHT22;11962;50.838;4.430;2023-04-10T06:41:37;12.40;90.50
23568;DHT22;11962;50.838;4.430;2023-04-10T06:44:03;12.40;90.50
23568;DHT22;11962;50.838;4.430;2023-04-10T06:46:29;12.40;90.50
23568;DHT22;11962;50.838;4.430;2023-04-10T06:48:55;12.50;90.30
23568;DHT22;11962;50.838;4.430;2023-04-10T06:51:20;12.60;90.20
23568;DHT22;11962;50.838;4.430;2023-04-10T06:53:46;12.60;90.10
23568;DHT22;11962;50.838;4.430;2023-04-10T06:56:12;12.60;90.50
23568;DHT22;11962;50.838;4.430;2023-04-10T06:58:38;12.60;90.20
23568;DHT22;11962;50.838;4.430;2023-04-10T07:01:04;12.70;90.10
23568;DHT22;11962;50.838;4.430;2023-04-10T07:03:30;12.80;89.80
23568;DHT22;11962;50.838;4.430;2023-04-10T07:05:57;12.80;89.40
23568;DHT22;11962;50.838;4.430;2023-04-10T07:08:23;12.90;89.40
23568;DHT22;11962;50.838;4.430;2023-04-10T07:10:48;12.90;89.10
23568;DHT22;11962;50.838;4.430;2023-04-10T07:13:14;12.90;89.00
23568;DHT22;11962;50.838;4.430;2023-04-10T07:15:40;12.90;89.00
23568;DHT22;11962;50.838;4.430;2023-04-10T07:18:06;13.10;88.80
23568;DHT22;11962;50.838;4.430;2023-04-10T07:20:32;13.20;88.20
23568;DHT22;11962;50.838;4.430;2023-04-10T07:22:57;13.40;87.80
23568;DHT22;11962;50.838;4.430;2023-04-10T07:25:23;13.60;87.30
23568;DHT22;11962;50.838;4.430;2023-04-10T07:27:49;13.70;87.00
23568;DHT22;11962;50.838;4.430;2023-04-10T07:30:15;14.00;86.60
23568;DHT22;11962;50.838;4.430;2023-04-10T07:32:40;14.30;85.70
23568;DHT22;11962;50.838;4.430;2023-04-10T07:35:06;14.60;84.80
23568;DHT22;11962;50.838;4.430;2023-04-10T07:37:32;14.80;83.60
23568;DHT22;11962;50.838;4.430;2023-04-10T07:39:58;14.90;83.10
23568;DHT22;11962;50.838;4.430;2023-04-10T07:42:25;14.90;83.00
23568;DHT22;11962;50.838;4.430;2023-04-10T07:44:51;14.90;82.80
23568;DHT22;11962;50.838;4.430;2023-04-10T07:47:16;14.90;82.80
23568;DHT22;11962;50.838;4.430;2023-04-10T07:49:42;15.00;82.70
23568;DHT22;11962;50.838;4.430;2023-04-10T07:52:08;15.10;82.60
23568;DHT22;11962;50.838;4.430;2023-04-10T07:54:34;15.20;82.30
23568;DHT22;11962;50.838;4.430;2023-04-10T07:57:00;15.20;82.20
23568;DHT22;11962;50.838;4.430;2023-04-10T07:59:26;15.10;82.70
23568;DHT22;11962;50.838;4.430;2023-04-10T08:01:53;15.10;82.60
23568;DHT22;11962;50.838;4.430;2023-04-10T08:04:19;15.00;82.70
23568;DHT22;11962;50.838;4.430;2023-04-10T08:06:45;15.10;82.70
23568;DHT22;11962;50.838;4.430;2023-04-10T08:09:10;15.30;82.50
23568;DHT22;11962;50.838;4.430;2023-04-10T08:11:36;15.40;81.80
23568;DHT22;11962;50.838;4.430;2023-04-10T08:14:02;15.60;81.10
23568;DHT22;11962;50.838;4.430;2023-04-10T08:16:31;15.80;80.70
23568;DHT22;11962;50.838;4.430;2023-04-10T08:18:58;16.00;79.60
23568;DHT22;11962;50.838;4.430;2023-04-10T08:21:25;16.40;79.50
23568;DHT22;11962;50.838;4.430;2023-04-10T08:23:56;16.70;78.60
23568;DHT22;11962;50.838;4.430;2023-04-10T08:26:22;16.70;77.00
23568;DHT22;11962;50.838;4.430;2023-04-10T08:28:49;16.60;78.00
23568;DHT22;11962;50.838;4.430;2023-04-10T08:31:16;16.40;77.80
23568;DHT22;11962;50.838;4.430;2023-04-10T08:33:42;16.40;78.30
23568;DHT22;11962;50.838;4.430;2023-04-10T08:36:08;16.40;78.50
23568;DHT22;11962;50.838;4.430;2023-04-10T08:38:34;16.50;78.50
23568;DHT22;11962;50.838;4.430;2023-04-10T08:41:00;16.60;78.80
23568;DHT22;11962;50.838;4.430;2023-04-10T08:43:26;16.70;78.20
23568;DHT22;11962;50.838;4.430;2023-04-10T08:45:52;17.00;77.90
23568;DHT22;11962;50.838;4.430;2023-04-10T08:48:19;16.90;77.00
23568;DHT22;11962;50.838;4.430;2023-04-10T08:50:46;17.00;76.90
23568;DHT22;11962;50.838;4.430;2023-04-10T08:53:13;17.20;76.90
23568;DHT22;11962;50.838;4.430;2023-04-10T08:55:40;17.10;76.50
23568;DHT22;11962;50.838;4.430;2023-04-10T08:58:07;17.00;77.10
23568;DHT22;11962;50.838;4.430;2023-04-10T09:00:33;17.00;77.30
23568;DHT22;11962;50.838;4.430;2023-04-10T09:03:00;17.00;77.00
23568;DHT22;11962;50.838;4.430;2023-04-10T09:05:29;17.10;77.00
23568;DHT22;11962;50.838;4.430;2023-04-10T09:07:55;17.00;77.30
23568;DHT22;11962;50.838;4.430;2023-04-10T09:10:22;16.90;77.60
23568;DHT22;11962;50.838;4.430;2023-04-10T09:12:48;17.00;77.80
23568;DHT22;11962;50.838;4.430;2023-04-10T09:15:14;17.00;77.60
23568;DHT22;11962;50.838;4.430;2023-04-10T09:18:00;17.40;77.30
23568;DHT22;11962;50.838;4.430;2023-04-10T09:20:29;18.00;75.90
23568;DHT22;11962;50.838;4.430;2023-04-10T09:22:55;18.20;75.10
23568;DHT22;11962;50.838;4.430;2023-04-10T09:25:35;18.30;74.50
23568;DHT22;11962;50.838;4.430;2023-04-10T09:30:35;18.70;74.10
23568;DHT22;11962;50.838;4.430;2023-04-10T09:33:01;18.80;73.60
23568;DHT22;11962;50.838;4.430;2023-04-10T09:35:36;18.90;73.40
23568;DHT22;11962;50.838;4.430;2023-04-10T09:38:16;18.80;72.80
23568;DHT22;11962;50.838;4.430;2023-04-10T09:40:44;18.90;73.00
23568;DHT22;11962;50.838;4.430;2023-04-10T09:43:28;18.80;73.10
23568;DHT22;11962;50.838;4.430;2023-04-10T09:45:55;18.70;73.30
23568;DHT22;11962;50.838;4.430;2023-04-10T09:48:23;18.60;74.00
23568;DHT22;11962;50.838;4.430;2023-04-10T09:50:49;18.70;74.10
23568;DHT22;11962;50.838;4.430;2023-04-10T09:53:16;18.80;74.00
23568;DHT22;11962;50.838;4.430;2023-04-10T09:55:45;18.80;73.90
23568;DHT22;11962;50.838;4.430;2023-04-10T09:58:11;18.90;74.60
23568;DHT22;11962;50.838;4.430;2023-04-10T10:00:42;19.50;72.60
23568;DHT22;11962;50.838;4.430;2023-04-10T10:03:16;20.30;71.70
23568;DHT22;11962;50.838;4.430;2023-04-10T10:05:44;20.80;68.80
23568;DHT22;11962;50.838;4.430;2023-04-10T10:08:11;21.10;68.10
23568;DHT22;11962;50.838;4.430;2023-04-10T10:10:53;21.50;67.30
23568;DHT22;11962;50.838;4.430;2023-04-10T10:13:34;22.10;65.60
23568;DHT22;11962;50.838;4.430;2023-04-10T10:16:12;23.00;64.20
23568;DHT22;11962;50.838;4.430;2023-04-10T10:19:05;23.40;61.50
23568;DHT22;11962;50.838;4.430;2023-04-10T10:21:31;23.90;61.20
23568;DHT22;11962;50.838;4.430;2023-04-10T10:24:00;24.00;60.20
23568;DHT22;11962;50.838;4.430;2023-04-10T10:26:31;24.10;59.30
23568;DHT22;11962;50.838;4.430;2023-04-10T10:29:02;24.40;58.90
23568;DHT22;11962;50.838;4.430;2023-04-10T10:31:28;24.70;58.20
23568;DHT22;11962;50.838;4.430;2023-04-10T10:33:59;24.90;58.50
23568;DHT22;11962;50.838;4.430;2023-04-10T10:36:36;25.10;57.70
23568;DHT22;11962;50.838;4.430;2023-04-10T10:41:48;24.70;57.80
23568;DHT22;11962;50.838;4.430;2023-04-10T10:46:55;25.00;56.90
23568;DHT22;11962;50.838;4.430;2023-04-10T10:52:46;24.50;57.20
23568;DHT22;11962;50.838;4.430;2023-04-10T10:57:58;24.20;57.90
23568;DHT22;11962;50.838;4.430;2023-04-10T11:08:17;23.00;59.80
23568;DHT22;11962;50.838;4.430;2023-04-10T11:11:02;23.00;60.10
23568;DHT22;11962;50.838;4.430;2023-04-10T11:16:03;23.00;60.10
23568;DHT22;11962;50.838;4.430;2023-04-10T11:21:16;23.30;59.90
23568;DHT22;11962;50.838;4.430;2023-04-10T11:29:04;23.20;60.30
23568;DHT22;11962;50.838;4.430;2023-04-10T11:31:33;22.90;60.20
23568;DHT22;11962;50.838;4.430;2023-04-10T11:34:00;22.70;60.80
23568;DHT22;11962;50.838;4.430;2023-04-10T11:36:26;22.60;60.80
23568;DHT22;11962;50.838;4.430;2023-04-10T11:39:08;22.60;60.90
23568;DHT22;11962;50.838;4.430;2023-04-10T11:41:36;22.60;60.70
23568;DHT22;11962;50.838;4.430;2023-04-10T11:46:52;22.20;60.50
23568;DHT22;11962;50.838;4.430;2023-04-10T11:49:20;22.00;61.80
23568;DHT22;11962;50.838;4.430;2023-04-10T11:51:48;21.90;62.40
23568;DHT22;11962;50.838;4.430;2023-04-10T11:54:16;22.10;62.50
23568;DHT22;11962;50.838;4.430;2023-04-10T11:56:45;22.10;62.20
23568;DHT22;11962;50.838;4.430;2023-04-10T11:59:19;22.00;62.70
23568;DHT22;11962;50.838;4.430;2023-04-10T12:01:45;21.90;62.60
23568;DHT22;11962;50.838;4.430;2023-04-10T12:04:19;21.80;62.90
23568;DHT22;11962;50.838;4.430;2023-04-10T12:06:50;21.80;63.50
23568;DHT22;11962;50.838;4.430;2023-04-10T12:09:18;21.90;63.30
23568;DHT22;11962;50.838;4.430;2023-04-10T12:14:14;22.10;63.40
23568;DHT22;11962;50.838;4.430;2023-04-10T12:16:40;21.90;63.60
23568;DHT22;11962;50.838;4.430;2023-04-10T12:19:06;21.70;63.70
23568;DHT22;11962;50.838;4.430;2023-04-10T12:21:35;21.60;64.50
23568;DHT22;11962;50.838;4.430;2023-04-10T12:24:01;21.40;64.60
23568;DHT22;11962;50.838;4.430;2023-04-10T12:26:26;21.40;64.90
23568;DHT22;11962;50.838;4.430;2023-04-10T12:28:55;21.40;65.10
23568;DHT22;11962;50.838;4.430;2023-04-10T12:31:32;21.40;65.40
23568;DHT22;11962;50.838;4.430;2023-04-10T12:33:58;21.20;64.60
23568;DHT22;11962;50.838;4.430;2023-04-10T12:36:26;21.00;64.80
23568;DHT22;11962;50.838;4.430;2023-04-10T12:39:02;21.00;65.00
23568;DHT22;11962;50.838;4.430;2023-04-10T12:41:30;21.10;65.20
23568;DHT22;11962;50.838;4.430;2023-04-10T12:44:08;21.10;64.60
23568;DHT22;11962;50.838;4.430;2023-04-10T12:46:34;21.20;64.30
23568;DHT22;11962;50.838;4.430;2023-04-10T12:49:17;21.20;64.50
23568;DHT22;11962;50.838;4.430;2023-04-10T12:51:48;21.10;65.30
23568;DHT22;11962;50.838;4.430;2023-04-10T12:54:34;21.00;66.50
23568;DHT22;11962;50.838;4.430;2023-04-10T12:57:02;21.10;67.00
23568;DHT22;11962;50.838;4.430;2023-04-10T12:59:31;21.10;67.60
23568;DHT22;11962;50.838;4.430;2023-04-10T13:01:57;21.30;68.30
23568;DHT22;11962;50.838;4.430;2023-04-10T13:04:23;21.20;71.20
23568;DHT22;11962;50.838;4.430;2023-04-10T13:06:49;21.00;72.00
23568;DHT22;11962;50.838;4.430;2023-04-10T13:09:17;20.80;72.60
23568;DHT22;11962;50.838;4.430;2023-04-10T13:11:43;20.50;72.60
23568;DHT22;11962;50.838;4.430;2023-04-10T13:14:09;20.30;74.00
23568;DHT22;11962;50.838;4.430;2023-04-10T13:16:35;20.30;75.20
23568;DHT22;11962;50.838;4.430;2023-04-10T13:19:01;20.30;75.60
23568;DHT22;11962;50.838;4.430;2023-04-10T13:21:27;20.50;75.60
23568;DHT22;11962;50.838;4.430;2023-04-10T13:23:56;20.80;75.80
23568;DHT22;11962;50.838;4.430;2023-04-10T13:26:23;20.90;74.80
23568;DHT22;11962;50.838;4.430;2023-04-10T13:28:49;20.90;75.30
23568;DHT22;11962;50.838;4.430;2023-04-10T13:31:14;20.70;76.00
23568;DHT22;11962;50.838;4.430;2023-04-10T13:33:44;20.70;75.20
23568;DHT22;11962;50.838;4.430;2023-04-10T13:36:12;20.50;75.60
23568;DHT22;11962;50.838;4.430;2023-04-10T13:38:39;20.40;75.80
23568;DHT22;11962;50.838;4.430;2023-04-10T13:41:04;20.30;76.50
23568;DHT22;11962;50.838;4.430;2023-04-10T13:43:30;20.40;76.80
23568;DHT22;11962;50.838;4.430;2023-04-10T13:45:56;20.40;76.20
23568;DHT22;11962;50.838;4.430;2023-04-10T13:48:24;20.50;76.60
23568;DHT22;11962;50.838;4.430;2023-04-10T13:50:50;20.60;76.50
23568;DHT22;11962;50.838;4.430;2023-04-10T13:53:16;20.70;76.50
23568;DHT22;11962;50.838;4.430;2023-04-10T13:55:41;20.70;75.40
23568;DHT22;11962;50.838;4.430;2023-04-10T13:58:09;20.80;75.80
23568;DHT22;11962;50.838;4.430;2023-04-10T14:00:38;20.80;74.30
23568;DHT22;11962;50.838;4.430;2023-04-10T14:03:04;20.80;74.60
23568;DHT22;11962;50.838;4.430;2023-04-10T14:05:30;20.70;73.10
23568;DHT22;11962;50.838;4.430;2023-04-10T14:07:55;20.80;73.30
23568;DHT22;11962;50.838;4.430;2023-04-10T14:10:24;20.90;72.90
23568;DHT22;11962;50.838;4.430;2023-04-10T14:12:50;21.10;72.50
23568;DHT22;11962;50.838;4.430;2023-04-10T14:15:16;21.00;71.70
23568;DHT22;11962;50.838;4.430;2023-04-10T14:17:42;21.00;71.80
23568;DHT22;11962;50.838;4.430;2023-04-10T14:20:08;21.00;72.40
23568;DHT22;11962;50.838;4.430;2023-04-10T14:22:36;21.20;72.20
23568;DHT22;11962;50.838;4.430;2023-04-10T14:25:02;21.30;71.30
23568;DHT22;11962;50.838;4.430;2023-04-10T14:27:29;21.40;71.50
23568;DHT22;11962;50.838;4.430;2023-04-10T14:29:56;21.50;70.90
23568;DHT22;11962;50.838;4.430;2023-04-10T14:32:22;21.50;70.30
23568;DHT22;11962;50.838;4.430;2023-04-10T14:34:47;21.40;70.50
23568;DHT22;11962;50.838;4.430;2023-04-10T14:37:13;21.20;70.70
23568;DHT22;11962;50.838;4.430;2023-04-10T14:39:39;20.90;72.20
23568;DHT22;11962;50.838;4.430;2023-04-10T14:42:05;20.70;73.50
23568;DHT22;11962;50.838;4.430;2023-04-10T14:44:31;20.70;76.40
23568;DHT22;11962;50.838;4.430;2023-04-10T14:46:57;20.30;80.80
23568;DHT22;11962;50.838;4.430;2023-04-10T14:49:22;20.00;80.60
23568;DHT22;11962;50.838;4.430;2023-04-10T14:51:48;19.60;82.90
23568;DHT22;11962;50.838;4.430;2023-04-10T14:54:15;19.30;83.30
23568;DHT22;11962;50.838;4.430;2023-04-10T14:56:47;19.10;84.30
23568;DHT22;11962;50.838;4.430;2023-04-10T14:59:13;18.80;85.80
23568;DHT22;11962;50.838;4.430;2023-04-10T15:01:39;18.60;85.80
23568;DHT22;11962;50.838;4.430;2023-04-10T15:04:05;18.50;87.40
23568;DHT22;11962;50.838;4.430;2023-04-10T15:06:33;18.40;88.70
23568;DHT22;11962;50.838;4.430;2023-04-10T15:08:59;18.20;90.20
23568;DHT22;11962;50.838;4.430;2023-04-10T15:11:25;18.10;90.50
23568;DHT22;11962;50.838;4.430;2023-04-10T15:13:51;18.10;90.90
23568;DHT22;11962;50.838;4.430;2023-04-10T15:16:17;18.10;91.40
23568;DHT22;11962;50.838;4.430;2023-04-10T15:18:46;18.10;91.60
23568;DHT22;11962;50.838;4.430;2023-04-10T15:21:12;18.00;91.50
23568;DHT22;11962;50.838;4.430;2023-04-10T15:23:38;17.90;91.70
23568;DHT22;11962;50.838;4.430;2023-04-10T15:26:09;17.90;91.90
23568;DHT22;11962;50.838;4.430;2023-04-10T15:28:35;17.80;91.80
23568;DHT22;11962;50.838;4.430;2023-04-10T15:31:01;17.70;92.30
23568;DHT22;11962;50.838;4.430;2023-04-10T15:33:27;17.70;93.10
23568;DHT22;11962;50.838;4.430;2023-04-10T15:35:53;17.60;93.40
23568;DHT22;11962;50.838;4.430;2023-04-10T15:38:18;17.50;93.70
23568;DHT22;11962;50.838;4.430;2023-04-10T15:40:44;17.40;94.50
23568;DHT22;11962;50.838;4.430;2023-04-10T15:43:10;17.20;95.50
23568;DHT22;11962;50.838;4.430;2023-04-10T15:45:37;17.10;96.60
23568;DHT22;11962;50.838;4.430;2023-04-10T15:48:03;17.00;97.30
23568;DHT22;11962;50.838;4.430;2023-04-10T15:50:29;17.00;97.80
23568;DHT22;11962;50.838;4.430;2023-04-10T15:52:55;16.90;98.60
23568;DHT22;11962;50.838;4.430;2023-04-10T15:55:21;16.80;99.60
23568;DHT22;11962;50.838;4.430;2023-04-10T15:57:46;16.60;99.90
23568;DHT22;11962;50.838;4.430;2023-04-10T16:00:13;16.40;99.90
23568;DHT22;11962;50.838;4.430;2023-04-10T16:02:38;16.20;99.90
23568;DHT22;11962;50.838;4.430;2023-04-10T16:05:05;16.10;99.90
23568;DHT22;11962;50.838;4.430;2023-04-10T16:07:33;16.00;99.90
23568;DHT22;11962;50.838;4.430;2023-04-10T16:10:03;15.90;99.90
23568;DHT22;11962;50.838;4.430;2023-04-10T16:12:29;15.80;99.90
23568;DHT22;11962;50.838;4.430;2023-04-10T16:14:55;15.80;99.90
23568;DHT22;11962;50.838;4.430;2023-04-10T16:17:21;15.70;99.90
23568;DHT22;11962;50.838;4.430;2023-04-10T16:19:47;15.60;99.90
23568;DHT22;11962;50.838;4.430;2023-04-10T16:22:13;15.50;99.90
23568;DHT22;11962;50.838;4.430;2023-04-10T16:24:38;15.40;99.90
23568;DHT22;11962;50.838;4.430;2023-04-10T16:27:04;15.20;99.90